DAL1165 KLAX-KSFO
Flight info
| Callsign | DAL1165 |
|---|---|
| Flight time | 0h 52m |
| Altitude | 36000 |
| Route | VTU8 RZS BSR BSR3 |
| Aircraft | L101/H-SDFHIWXY/C |
Departure
| Time | 2026-04-22 16:14 |
|---|---|
| Airport | Los Angeles International Airport (KLAX) |
Arrival
| Time | 2026-04-22 17:07 |
|---|---|
| Airport | San Francisco International Airport (KSFO) |
| Time | Latitude | Longitude | Altitude | Speed | Heading |
|---|---|---|---|---|---|
| 2026-04-22 15:43 | 33.94718 | -118.40488 | 98 ft | 0 kts | 132° |
| 2026-04-22 16:05 | 33.94728 | -118.40501 | 98 ft | 4 kts | 132° |
| 2026-04-22 16:06 | 33.94743 | -118.40520 | 98 ft | 4 kts | 122° |
| 2026-04-22 16:06 | 33.94750 | -118.40547 | 98 ft | 4 kts | 67° |
| 2026-04-22 16:06 | 33.94736 | -118.40561 | 100 ft | 4 kts | 353° |
| 2026-04-22 16:06 | 33.94712 | -118.40557 | 98 ft | 1 kts | 353° |
| 2026-04-22 16:07 | 33.94711 | -118.40557 | 98 ft | 0 kts | 353° |
| 2026-04-22 16:09 | 33.94713 | -118.40557 | 98 ft | 0 kts | 353° |
| 2026-04-22 16:10 | 33.94721 | -118.40560 | 98 ft | 3 kts | 344° |
| 2026-04-22 16:10 | 33.94767 | -118.40577 | 100 ft | 10 kts | 342° |
| 2026-04-22 16:11 | 33.94845 | -118.40588 | 99 ft | 12 kts | 27° |
| 2026-04-22 16:11 | 33.94874 | -118.40488 | 100 ft | 15 kts | 82° |
| 2026-04-22 16:11 | 33.94889 | -118.40347 | 100 ft | 19 kts | 83° |
| 2026-04-22 16:11 | 33.94906 | -118.40176 | 99 ft | 22 kts | 83° |
| 2026-04-22 16:12 | 33.94924 | -118.40003 | 98 ft | 18 kts | 82° |
| 2026-04-22 16:12 | 33.94941 | -118.39944 | 98 ft | 0 kts | 52° |
| 2026-04-22 16:12 | 33.94943 | -118.39941 | 98 ft | 0 kts | 50° |
| 2026-04-22 16:12 | 33.94955 | -118.39929 | 101 ft | 4 kts | 38° |
| 2026-04-22 16:13 | 33.94997 | -118.39912 | 99 ft | 8 kts | 359° |
| 2026-04-22 16:13 | 33.95042 | -118.39935 | 98 ft | 5 kts | 290° |
| 2026-04-22 16:13 | 33.95040 | -118.39968 | 100 ft | 0 kts | 263° |
| 2026-04-22 16:13 | 33.95039 | -118.39973 | 98 ft | 6 kts | 263° |
| 2026-04-22 16:14 | 33.94999 | -118.40380 | 102 ft | 99 kts | 263° |
| 2026-04-22 16:14 | 33.94879 | -118.41555 | 294 ft | 168 kts | 263° |
| 2026-04-22 16:14 | 33.94730 | -118.42935 | 1518 ft | 172 kts | 262° |
| 2026-04-22 16:14 | 33.94545 | -118.44379 | 2900 ft | 179 kts | 261° |
| 2026-04-22 16:15 | 33.94338 | -118.45941 | 3809 ft | 196 kts | 262° |
| 2026-04-22 16:15 | 33.94267 | -118.47628 | 4645 ft | 212 kts | 272° |
| 2026-04-22 16:15 | 33.94431 | -118.49541 | 5252 ft | 249 kts | 279° |
| 2026-04-22 16:15 | 33.94815 | -118.51640 | 5233 ft | 262 kts | 285° |
| 2026-04-22 16:16 | 33.95352 | -118.53718 | 5367 ft | 254 kts | 289° |
| 2026-04-22 16:16 | 33.95953 | -118.55704 | 5996 ft | 254 kts | 290° |
| 2026-04-22 16:16 | 33.96604 | -118.57736 | 6706 ft | 257 kts | 291° |
| 2026-04-22 16:16 | 33.97246 | -118.59720 | 7400 ft | 262 kts | 291° |
| 2026-04-22 16:17 | 33.97937 | -118.61856 | 7954 ft | 282 kts | 291° |
| 2026-04-22 16:17 | 33.98647 | -118.64055 | 9005 ft | 277 kts | 290° |
| 2026-04-22 16:17 | 33.99318 | -118.66140 | 10520 ft | 258 kts | 290° |
| 2026-04-22 16:17 | 33.99954 | -118.68118 | 11567 ft | 261 kts | 289° |
| 2026-04-22 16:18 | 34.00646 | -118.70290 | 12157 ft | 298 kts | 289° |
| 2026-04-22 16:18 | 34.01438 | -118.72804 | 12299 ft | 339 kts | 289° |
| 2026-04-22 16:18 | 34.02289 | -118.75512 | 12333 ft | 351 kts | 289° |
| 2026-04-22 16:18 | 34.03178 | -118.78329 | 12587 ft | 364 kts | 289° |
| 2026-04-22 16:19 | 34.04079 | -118.81175 | 13415 ft | 360 kts | 289° |
| 2026-04-22 16:19 | 34.04969 | -118.83968 | 14293 ft | 356 kts | 289° |
| 2026-04-22 16:19 | 34.05870 | -118.86795 | 14625 ft | 367 kts | 289° |
| 2026-04-22 16:19 | 34.06790 | -118.89696 | 15169 ft | 370 kts | 289° |
| 2026-04-22 16:20 | 34.07703 | -118.92573 | 16045 ft | 367 kts | 288° |
| 2026-04-22 16:20 | 34.08621 | -118.95475 | 16595 ft | 373 kts | 288° |
| 2026-04-22 16:20 | 34.09542 | -118.98407 | 17312 ft | 374 kts | 288° |
| 2026-04-22 16:20 | 34.10464 | -119.01361 | 17948 ft | 378 kts | 288° |
| 2026-04-22 16:21 | 34.11561 | -119.04270 | 18604 ft | 385 kts | 295° |
| 2026-04-22 16:21 | 34.13003 | -119.07013 | 19243 ft | 389 kts | 300° |
| 2026-04-22 16:21 | 34.14544 | -119.09715 | 19855 ft | 392 kts | 299° |
| 2026-04-22 16:21 | 34.16025 | -119.12482 | 20455 ft | 394 kts | 297° |
| 2026-04-22 16:22 | 34.18898 | -119.18113 | 21673 ft | 400 kts | 297° |
| 2026-04-22 16:22 | 34.20414 | -119.20953 | 22319 ft | 404 kts | 298° |
| 2026-04-22 16:22 | 34.21975 | -119.23794 | 22968 ft | 408 kts | 298° |
| 2026-04-22 16:23 | 34.25146 | -119.29542 | 24308 ft | 413 kts | 298° |
| 2026-04-22 16:23 | 34.26736 | -119.32450 | 24877 ft | 416 kts | 298° |
| 2026-04-22 16:23 | 34.28337 | -119.35382 | 25437 ft | 420 kts | 298° |
| 2026-04-22 16:24 | 34.29966 | -119.38364 | 25687 ft | 431 kts | 298° |
| 2026-04-22 16:24 | 34.33363 | -119.44585 | 25939 ft | 454 kts | 298° |
| 2026-04-22 16:24 | 34.35111 | -119.47766 | 26589 ft | 451 kts | 298° |
| 2026-04-22 16:25 | 34.36845 | -119.50916 | 27357 ft | 448 kts | 298° |
| 2026-04-22 16:25 | 34.40268 | -119.57174 | 28983 ft | 442 kts | 298° |
| 2026-04-22 16:25 | 34.41957 | -119.60273 | 29803 ft | 439 kts | 298° |
| 2026-04-22 16:26 | 34.43632 | -119.63351 | 30586 ft | 436 kts | 298° |
| 2026-04-22 16:26 | 34.45296 | -119.66409 | 31221 ft | 434 kts | 297° |
| 2026-04-22 16:26 | 34.46933 | -119.69420 | 31820 ft | 433 kts | 297° |
| 2026-04-22 16:26 | 34.48584 | -119.72460 | 32490 ft | 431 kts | 297° |
| 2026-04-22 16:27 | 34.50343 | -119.75412 | 33127 ft | 436 kts | 304° |
| 2026-04-22 16:27 | 34.52504 | -119.78024 | 33817 ft | 441 kts | 311° |
| 2026-04-22 16:27 | 34.54790 | -119.80490 | 34439 ft | 439 kts | 310° |
| 2026-04-22 16:27 | 34.56990 | -119.83013 | 35116 ft | 433 kts | 308° |
| 2026-04-22 16:28 | 34.59130 | -119.85560 | 35824 ft | 428 kts | 308° |
| 2026-04-22 16:28 | 34.61293 | -119.88090 | 36123 ft | 435 kts | 309° |
| 2026-04-22 16:28 | 34.65725 | -119.93029 | 36185 ft | 430 kts | 310° |
| 2026-04-22 16:29 | 34.70119 | -119.97850 | 36204 ft | 428 kts | 310° |
| 2026-04-22 16:29 | 34.74527 | -120.02700 | 36227 ft | 426 kts | 309° |
| 2026-04-22 16:30 | 34.78931 | -120.07522 | 36225 ft | 426 kts | 309° |
| 2026-04-22 16:30 | 34.83327 | -120.12347 | 36210 ft | 426 kts | 309° |
| 2026-04-22 16:31 | 34.87724 | -120.17185 | 36233 ft | 427 kts | 310° |
| 2026-04-22 16:31 | 34.92132 | -120.22031 | 36231 ft | 426 kts | 309° |
| 2026-04-22 16:32 | 34.96496 | -120.26827 | 36235 ft | 425 kts | 309° |
| 2026-04-22 16:32 | 35.00871 | -120.31666 | 36239 ft | 424 kts | 309° |
| 2026-04-22 16:33 | 35.05254 | -120.36512 | 36233 ft | 426 kts | 309° |
| 2026-04-22 16:33 | 35.09633 | -120.41344 | 36249 ft | 423 kts | 309° |
| 2026-04-22 16:34 | 35.13984 | -120.46172 | 36242 ft | 423 kts | 309° |
| 2026-04-22 16:34 | 35.18308 | -120.50976 | 36247 ft | 423 kts | 309° |
| 2026-04-22 16:35 | 35.22656 | -120.55811 | 36270 ft | 423 kts | 309° |
| 2026-04-22 16:35 | 35.27003 | -120.60647 | 36256 ft | 420 kts | 309° |
| 2026-04-22 16:36 | 35.31318 | -120.65456 | 36252 ft | 419 kts | 308° |
| 2026-04-22 16:36 | 35.35622 | -120.70273 | 36247 ft | 419 kts | 308° |
| 2026-04-22 16:37 | 35.39901 | -120.75059 | 36276 ft | 419 kts | 308° |
| 2026-04-22 16:37 | 35.44196 | -120.79867 | 36245 ft | 417 kts | 308° |
| 2026-04-22 16:38 | 35.48473 | -120.84664 | 36263 ft | 416 kts | 308° |
| 2026-04-22 16:38 | 35.52743 | -120.89466 | 36273 ft | 416 kts | 308° |
| 2026-04-22 16:39 | 35.57013 | -120.94273 | 36275 ft | 417 kts | 308° |
| 2026-04-22 16:39 | 35.61257 | -120.99036 | 36246 ft | 415 kts | 308° |
| 2026-04-22 16:40 | 35.65517 | -121.03857 | 36253 ft | 417 kts | 308° |
| 2026-04-22 16:41 | 35.71918 | -121.11097 | 36248 ft | 417 kts | 308° |
| 2026-04-22 16:41 | 35.76182 | -121.15929 | 36257 ft | 416 kts | 308° |
| 2026-04-22 16:42 | 35.80401 | -121.20722 | 36246 ft | 415 kts | 308° |
| 2026-04-22 16:42 | 35.84649 | -121.25558 | 36255 ft | 416 kts | 308° |
| 2026-04-22 16:43 | 35.88901 | -121.30391 | 36284 ft | 416 kts | 308° |
| 2026-04-22 16:43 | 35.93144 | -121.35223 | 36252 ft | 415 kts | 308° |
| 2026-04-22 16:44 | 35.97382 | -121.40063 | 36251 ft | 415 kts | 308° |
| 2026-04-22 16:44 | 36.01584 | -121.44864 | 36247 ft | 415 kts | 308° |
| 2026-04-22 16:45 | 36.05818 | -121.49710 | 36270 ft | 415 kts | 308° |
| 2026-04-22 16:45 | 36.10051 | -121.54562 | 36242 ft | 414 kts | 308° |
| 2026-04-22 16:46 | 36.14278 | -121.59417 | 36250 ft | 414 kts | 308° |
| 2026-04-22 16:46 | 36.18627 | -121.64153 | 36077 ft | 425 kts | 313° |
| 2026-04-22 16:46 | 36.21037 | -121.66339 | 35578 ft | 432 kts | 315° |
| 2026-04-22 16:47 | 36.23447 | -121.68469 | 34850 ft | 429 kts | 315° |
| 2026-04-22 16:47 | 36.25850 | -121.70612 | 34101 ft | 422 kts | 314° |
| 2026-04-22 16:47 | 36.27448 | -121.72043 | 33560 ft | 418 kts | 315° |
| 2026-04-22 16:47 | 36.30554 | -121.74799 | 32503 ft | 412 kts | 315° |
| 2026-04-22 16:48 | 36.32880 | -121.76836 | 31752 ft | 408 kts | 315° |
| 2026-04-22 16:48 | 36.35189 | -121.78848 | 31016 ft | 403 kts | 315° |
| 2026-04-22 16:48 | 36.37472 | -121.80834 | 30297 ft | 398 kts | 316° |
| 2026-04-22 16:48 | 36.39727 | -121.82798 | 29463 ft | 395 kts | 316° |
| 2026-04-22 16:49 | 36.41963 | -121.84748 | 28655 ft | 391 kts | 316° |
| 2026-04-22 16:49 | 36.44267 | -121.86479 | 27843 ft | 398 kts | 327° |
| 2026-04-22 16:49 | 36.46918 | -121.87585 | 27071 ft | 404 kts | 336° |
| 2026-04-22 16:49 | 36.49637 | -121.88405 | 26361 ft | 400 kts | 336° |
| 2026-04-22 16:50 | 36.52304 | -121.89323 | 25638 ft | 394 kts | 334° |
| 2026-04-22 16:50 | 36.54907 | -121.90305 | 24923 ft | 389 kts | 334° |
| 2026-04-22 16:50 | 36.57499 | -121.91242 | 24263 ft | 386 kts | 335° |
| 2026-04-22 16:50 | 36.60087 | -121.92089 | 23533 ft | 382 kts | 337° |
| 2026-04-22 16:51 | 36.62655 | -121.92869 | 22727 ft | 378 kts | 338° |
| 2026-04-22 16:51 | 36.65200 | -121.93622 | 21937 ft | 373 kts | 338° |
| 2026-04-22 16:51 | 36.67672 | -121.94355 | 21180 ft | 367 kts | 338° |
| 2026-04-22 16:51 | 36.70137 | -121.95089 | 20435 ft | 362 kts | 339° |
| 2026-04-22 16:52 | 36.72565 | -121.95809 | 19713 ft | 356 kts | 339° |
| 2026-04-22 16:52 | 36.74969 | -121.96491 | 19009 ft | 352 kts | 340° |
| 2026-04-22 16:52 | 36.77349 | -121.97118 | 18287 ft | 347 kts | 341° |
| 2026-04-22 16:52 | 36.79694 | -121.97727 | 17491 ft | 342 kts | 341° |
| 2026-04-22 16:53 | 36.82003 | -121.98334 | 16711 ft | 337 kts | 341° |
| 2026-04-22 16:53 | 36.84278 | -121.98938 | 15957 ft | 332 kts | 341° |
| 2026-04-22 16:53 | 36.86487 | -121.99523 | 15231 ft | 327 kts | 341° |
| 2026-04-22 16:53 | 36.88700 | -122.00105 | 14513 ft | 323 kts | 341° |
| 2026-04-22 16:54 | 36.90889 | -122.00678 | 13755 ft | 319 kts | 341° |
| 2026-04-22 16:54 | 36.93052 | -122.01246 | 13011 ft | 314 kts | 341° |
| 2026-04-22 16:54 | 36.95156 | -122.01798 | 12382 ft | 305 kts | 342° |
| 2026-04-22 16:54 | 36.97211 | -122.02333 | 11746 ft | 298 kts | 342° |
| 2026-04-22 16:55 | 36.99219 | -122.02859 | 11113 ft | 292 kts | 342° |
| 2026-04-22 16:55 | 37.01197 | -122.03378 | 10500 ft | 288 kts | 343° |
| 2026-04-22 16:55 | 37.03152 | -122.03892 | 9869 ft | 286 kts | 343° |
| 2026-04-22 16:55 | 37.05092 | -122.04407 | 9207 ft | 284 kts | 343° |
| 2026-04-22 16:56 | 37.07021 | -122.04919 | 8552 ft | 283 kts | 343° |
| 2026-04-22 16:56 | 37.08915 | -122.05422 | 7912 ft | 281 kts | 344° |
| 2026-04-22 16:56 | 37.10822 | -122.05932 | 7283 ft | 280 kts | 344° |
| 2026-04-22 16:56 | 37.12724 | -122.06438 | 6674 ft | 280 kts | 345° |
| 2026-04-22 16:57 | 37.14615 | -122.06933 | 6215 ft | 272 kts | 345° |
| 2026-04-22 16:57 | 37.16441 | -122.07400 | 6069 ft | 267 kts | 345° |
| 2026-04-22 16:57 | 37.18286 | -122.07880 | 6055 ft | 273 kts | 345° |
| 2026-04-22 16:57 | 37.20157 | -122.08373 | 6037 ft | 276 kts | 344° |
| 2026-04-22 16:58 | 37.21402 | -122.08708 | 6018 ft | 276 kts | 344° |
| 2026-04-22 16:58 | 37.23923 | -122.09392 | 6010 ft | 278 kts | 345° |
| 2026-04-22 16:58 | 37.25807 | -122.09888 | 5961 ft | 277 kts | 345° |
| 2026-04-22 16:58 | 37.27718 | -122.10388 | 5461 ft | 282 kts | 345° |
| 2026-04-22 16:59 | 37.29638 | -122.10897 | 4818 ft | 282 kts | 345° |
| 2026-04-22 16:59 | 37.31550 | -122.11395 | 4363 ft | 272 kts | 345° |
| 2026-04-22 16:59 | 37.33373 | -122.11861 | 4037 ft | 264 kts | 345° |
| 2026-04-22 16:59 | 37.35129 | -122.12317 | 3790 ft | 252 kts | 345° |
| 2026-04-22 17:00 | 37.36824 | -122.12769 | 3541 ft | 245 kts | 345° |
| 2026-04-22 17:00 | 37.40035 | -122.13635 | 3102 ft | 225 kts | 344° |
| 2026-04-22 17:00 | 37.41492 | -122.14037 | 3130 ft | 216 kts | 344° |
| 2026-04-22 17:01 | 37.42975 | -122.14449 | 3320 ft | 222 kts | 344° |
| 2026-04-22 17:01 | 37.44501 | -122.14876 | 3314 ft | 226 kts | 344° |
| 2026-04-22 17:01 | 37.46029 | -122.15305 | 3148 ft | 220 kts | 343° |
| 2026-04-22 17:01 | 37.47435 | -122.15683 | 3049 ft | 194 kts | 344° |
| 2026-04-22 17:02 | 37.48310 | -122.15914 | 3010 ft | 189 kts | 344° |
| 2026-04-22 17:02 | 37.50025 | -122.16366 | 3019 ft | 193 kts | 343° |
| 2026-04-22 17:02 | 37.51343 | -122.16709 | 3015 ft | 193 kts | 345° |
| 2026-04-22 17:02 | 37.52229 | -122.16950 | 3015 ft | 192 kts | 344° |
| 2026-04-22 17:03 | 37.53481 | -122.17464 | 2996 ft | 189 kts | 324° |
| 2026-04-22 17:03 | 37.54484 | -122.19177 | 2926 ft | 184 kts | 293° |
| 2026-04-22 17:03 | 37.54859 | -122.20159 | 2835 ft | 183 kts | 292° |
| 2026-04-22 17:03 | 37.55420 | -122.21580 | 2583 ft | 174 kts | 294° |
| 2026-04-22 17:04 | 37.55929 | -122.22811 | 2321 ft | 147 kts | 294° |
| 2026-04-22 17:04 | 37.56400 | -122.23945 | 2088 ft | 150 kts | 293° |
| 2026-04-22 17:04 | 37.56893 | -122.25128 | 2093 ft | 156 kts | 294° |
| 2026-04-22 17:04 | 37.57414 | -122.26369 | 2013 ft | 163 kts | 294° |
| 2026-04-22 17:05 | 37.57943 | -122.27625 | 1773 ft | 162 kts | 295° |
| 2026-04-22 17:05 | 37.58465 | -122.28868 | 1490 ft | 163 kts | 293° |
| 2026-04-22 17:05 | 37.58994 | -122.30123 | 1173 ft | 162 kts | 295° |
| 2026-04-22 17:05 | 37.59520 | -122.31370 | 846 ft | 161 kts | 295° |
| 2026-04-22 17:06 | 37.60041 | -122.32628 | 643 ft | 164 kts | 296° |
| 2026-04-22 17:06 | 37.60593 | -122.33925 | 422 ft | 166 kts | 298° |
| 2026-04-22 17:06 | 37.61151 | -122.35233 | 168 ft | 169 kts | 297° |
| 2026-04-22 17:06 | 37.61684 | -122.36506 | 28 ft | 148 kts | 297° |
| 2026-04-22 17:07 | 37.62074 | -122.37431 | 26 ft | 97 kts | 296° |
| 2026-04-22 17:07 | 37.62310 | -122.37994 | 26 ft | 42 kts | 298° |
| 2026-04-22 17:07 | 37.62363 | -122.38200 | 26 ft | 17 kts | 231° |
| 2026-04-22 17:07 | 37.62258 | -122.38277 | 27 ft | 19 kts | 207° |
| 2026-04-22 17:08 | 37.62151 | -122.38345 | 25 ft | 14 kts | 197° |
| 2026-04-22 17:08 | 37.62076 | -122.38286 | 27 ft | 15 kts | 121° |
| 2026-04-22 17:08 | 37.62025 | -122.38168 | 25 ft | 16 kts | 118° |
| 2026-04-22 17:08 | 37.61978 | -122.38057 | 25 ft | 11 kts | 119° |
| 2026-04-22 17:09 | 37.61928 | -122.37968 | 26 ft | 14 kts | 133° |
| 2026-04-22 17:09 | 37.61845 | -122.37893 | 26 ft | 16 kts | 149° |
| 2026-04-22 17:09 | 37.61754 | -122.37878 | 26 ft | 11 kts | 212° |
| 2026-04-22 17:09 | 37.61686 | -122.37950 | 26 ft | 15 kts | 211° |
| 2026-04-22 17:10 | 37.61605 | -122.38005 | 27 ft | 12 kts | 206° |
| 2026-04-22 17:10 | 37.61519 | -122.38062 | 27 ft | 16 kts | 207° |
| 2026-04-22 17:10 | 37.61410 | -122.38134 | 27 ft | 19 kts | 207° |
| 2026-04-22 17:10 | 37.61347 | -122.38175 | 26 ft | 6 kts | 207° |
| 2026-04-22 17:11 | 37.61295 | -122.38209 | 27 ft | 11 kts | 207° |
| 2026-04-22 17:11 | 37.61217 | -122.38262 | 27 ft | 15 kts | 208° |
| 2026-04-22 17:11 | 37.61116 | -122.38326 | 27 ft | 17 kts | 207° |
| 2026-04-22 17:11 | 37.61032 | -122.38383 | 27 ft | 13 kts | 209° |
| 2026-04-22 17:12 | 37.60944 | -122.38460 | 27 ft | 17 kts | 214° |
| 2026-04-22 17:12 | 37.60889 | -122.38561 | 27 ft | 16 kts | 281° |
| 2026-04-22 17:12 | 37.60939 | -122.38695 | 27 ft | 18 kts | 297° |
| 2026-04-22 17:12 | 37.60959 | -122.38742 | 27 ft | 0 kts | 298° |
| 2026-04-22 17:13 | 37.60959 | -122.38743 | 27 ft | 1 kts | 292° |
| 2026-04-22 17:13 | 37.60954 | -122.38750 | 27 ft | 2 kts | 230° |
| 2026-04-22 17:14 | 37.60927 | -122.38726 | 26 ft | 10 kts | 117° |
| 2026-04-22 17:14 | 37.60896 | -122.38628 | 27 ft | 13 kts | 104° |
| 2026-04-22 17:14 | 37.60951 | -122.38547 | 27 ft | 15 kts | 32° |
| 2026-04-22 17:14 | 37.61047 | -122.38465 | 26 ft | 18 kts | 34° |
| 2026-04-22 17:15 | 37.61119 | -122.38410 | 26 ft | 18 kts | 28° |
| 2026-04-22 17:15 | 37.61253 | -122.38323 | 27 ft | 16 kts | 27° |
| 2026-04-22 17:15 | 37.61316 | -122.38240 | 27 ft | 8 kts | 63° |
| 2026-04-22 17:15 | 37.61360 | -122.38223 | 27 ft | 7 kts | 358° |
| 2026-04-22 17:16 | 37.61392 | -122.38227 | 27 ft | 6 kts | 354° |
| 2026-04-22 17:16 | 37.61411 | -122.38230 | 25 ft | 2 kts | 354° |
| 2026-04-22 17:16 | 37.61421 | -122.38231 | 27 ft | 1 kts | 354° |
| 2026-04-22 17:16 | 37.61424 | -122.38231 | 27 ft | 1 kts | 354° |
| 2026-04-22 17:17 | 37.61428 | -122.38232 | 27 ft | 0 kts | 354° |
| 2026-04-22 17:17 | 37.61431 | -122.38232 | 27 ft | 0 kts | 353° |